sensor_id;sensor_type;location;lat;lon;timestamp;temperature;humidity
7814;DHT22;3952;48.364;16.022;2022-12-07T00:01:25;5.10;99.90
7814;DHT22;3952;48.364;16.022;2022-12-07T00:03:54;5.10;99.90
7814;DHT22;3952;48.364;16.022;2022-12-07T00:06:23;5.10;99.90
7814;DHT22;3952;48.364;16.022;2022-12-07T00:08:50;5.20;99.90
7814;DHT22;3952;48.364;16.022;2022-12-07T00:11:19;5.20;99.90
7814;DHT22;3952;48.364;16.022;2022-12-07T00:13:47;5.20;99.90
7814;DHT22;3952;48.364;16.022;2022-12-07T00:16:20;5.20;99.90
7814;DHT22;3952;48.364;16.022;2022-12-07T00:18:48;5.20;99.90
7814;DHT22;3952;48.364;16.022;2022-12-07T00:21:17;5.20;99.90
7814;DHT22;3952;48.364;16.022;2022-12-07T00:23:46;5.20;99.90
7814;DHT22;3952;48.364;16.022;2022-12-07T00:26:15;5.20;99.90
7814;DHT22;3952;48.364;16.022;2022-12-07T00:28:46;5.20;99.90
7814;DHT22;3952;48.364;16.022;2022-12-07T00:31:15;5.20;99.90
7814;DHT22;3952;48.364;16.022;2022-12-07T00:33:43;5.20;99.90
7814;DHT22;3952;48.364;16.022;2022-12-07T00:36:14;5.20;99.90
7814;DHT22;3952;48.364;16.022;2022-12-07T00:38:42;5.20;99.90
7814;DHT22;3952;48.364;16.022;2022-12-07T00:41:12;5.20;99.90
7814;DHT22;3952;48.364;16.022;2022-12-07T00:43:40;5.20;99.90
7814;DHT22;3952;48.364;16.022;2022-12-07T00:46:08;5.20;99.90
7814;DHT22;3952;48.364;16.022;2022-12-07T00:48:35;5.30;99.90
7814;DHT22;3952;48.364;16.022;2022-12-07T00:51:04;5.20;99.90
7814;DHT22;3952;48.364;16.022;2022-12-07T00:53:34;5.20;99.90
7814;DHT22;3952;48.364;16.022;2022-12-07T00:56:05;5.30;99.90
7814;DHT22;3952;48.364;16.022;2022-12-07T00:58:32;5.20;99.90
7814;DHT22;3952;48.364;16.022;2022-12-07T01:01:00;5.20;99.90
7814;DHT22;3952;48.364;16.022;2022-12-07T01:03:28;5.00;99.90
7814;DHT22;3952;48.364;16.022;2022-12-07T01:05:56;5.20;99.90
7814;DHT22;3952;48.364;16.022;2022-12-07T01:08:26;5.20;99.90
7814;DHT22;3952;48.364;16.022;2022-12-07T01:10:58;5.20;99.90
7814;DHT22;3952;48.364;16.022;2022-12-07T01:13:26;5.20;99.90
7814;DHT22;3952;48.364;16.022;2022-12-07T01:15:57;5.10;99.90
7814;DHT22;3952;48.364;16.022;2022-12-07T01:18:26;5.10;99.90
7814;DHT22;3952;48.364;16.022;2022-12-07T01:21:00;5.10;99.90
7814;DHT22;3952;48.364;16.022;2022-12-07T01:23:30;5.10;99.90
7814;DHT22;3952;48.364;16.022;2022-12-07T01:25:59;5.10;99.90
7814;DHT22;3952;48.364;16.022;2022-12-07T01:28:27;5.10;99.90
7814;DHT22;3952;48.364;16.022;2022-12-07T01:30:58;5.90;99.90
7814;DHT22;3952;48.364;16.022;2022-12-07T01:33:27;5.10;99.90
7814;DHT22;3952;48.364;16.022;2022-12-07T01:36:00;5.10;99.90
7814;DHT22;3952;48.364;16.022;2022-12-07T01:38:29;5.10;99.90
7814;DHT22;3952;48.364;16.022;2022-12-07T01:40:57;5.10;99.90
7814;DHT22;3952;48.364;16.022;2022-12-07T01:43:26;5.10;99.90
7814;DHT22;3952;48.364;16.022;2022-12-07T01:45:54;5.10;99.90
7814;DHT22;3952;48.364;16.022;2022-12-07T01:48:24;5.10;99.90
7814;DHT22;3952;48.364;16.022;2022-12-07T01:50:53;5.10;99.90
7814;DHT22;3952;48.364;16.022;2022-12-07T01:53:25;5.10;99.90
7814;DHT22;3952;48.364;16.022;2022-12-07T01:55:56;5.00;99.90
7814;DHT22;3952;48.364;16.022;2022-12-07T01:58:24;5.10;99.90
7814;DHT22;3952;48.364;16.022;2022-12-07T02:00:51;5.00;99.90
7814;DHT22;3952;48.364;16.022;2022-12-07T02:03:23;5.00;99.90
7814;DHT22;3952;48.364;16.022;2022-12-07T02:05:51;5.00;99.90
7814;DHT22;3952;48.364;16.022;2022-12-07T02:08:20;5.10;99.90
7814;DHT22;3952;48.364;16.022;2022-12-07T02:10:47;5.00;99.90
7814;DHT22;3952;48.364;16.022;2022-12-07T02:13:19;5.00;99.90
7814;DHT22;3952;48.364;16.022;2022-12-07T02:16:01;5.00;99.90
7814;DHT22;3952;48.364;16.022;2022-12-07T02:18:43;4.50;99.90
7814;DHT22;3952;48.364;16.022;2022-12-07T02:21:15;5.00;99.90
7814;DHT22;3952;48.364;16.022;2022-12-07T02:24:19;4.90;99.90
7814;DHT22;3952;48.364;16.022;2022-12-07T02:27:01;5.00;99.90
7814;DHT22;3952;48.364;16.022;2022-12-07T02:29:34;5.00;99.90
7814;DHT22;3952;48.364;16.022;2022-12-07T02:32:07;4.90;99.90
7814;DHT22;3952;48.364;16.022;2022-12-07T02:34:42;4.90;99.90
7814;DHT22;3952;48.364;16.022;2022-12-07T02:37:18;4.90;99.90
7814;DHT22;3952;48.364;16.022;2022-12-07T02:39:51;4.90;99.90
7814;DHT22;3952;48.364;16.022;2022-12-07T02:42:23;4.90;99.90
7814;DHT22;3952;48.364;16.022;2022-12-07T02:44:53;4.90;99.90
7814;DHT22;3952;48.364;16.022;2022-12-07T02:47:21;4.90;99.90
7814;DHT22;3952;48.364;16.022;2022-12-07T02:49:51;4.90;99.90
7814;DHT22;3952;48.364;16.022;2022-12-07T02:52:19;4.90;99.90
7814;DHT22;3952;48.364;16.022;2022-12-07T02:54:46;4.90;99.90
7814;DHT22;3952;48.364;16.022;2022-12-07T02:57:27;4.90;99.90
7814;DHT22;3952;48.364;16.022;2022-12-07T03:00:05;4.90;99.90
7814;DHT22;3952;48.364;16.022;2022-12-07T03:02:41;4.90;99.90
7814;DHT22;3952;48.364;16.022;2022-12-07T03:05:26;4.90;99.90
7814;DHT22;3952;48.364;16.022;2022-12-07T03:08:01;4.90;99.90
7814;DHT22;3952;48.364;16.022;2022-12-07T03:10:38;4.90;99.90
7814;DHT22;3952;48.364;16.022;2022-12-07T03:13:12;4.90;99.90
7814;DHT22;3952;48.364;16.022;2022-12-07T03:15:48;4.90;99.90
7814;DHT22;3952;48.364;16.022;2022-12-07T03:18:19;4.90;99.90
7814;DHT22;3952;48.364;16.022;2022-12-07T03:20:50;4.90;99.90
7814;DHT22;3952;48.364;16.022;2022-12-07T03:23:19;4.90;99.90
7814;DHT22;3952;48.364;16.022;2022-12-07T03:25:52;4.90;99.90
7814;DHT22;3952;48.364;16.022;2022-12-07T03:28:23;4.90;99.90
7814;DHT22;3952;48.364;16.022;2022-12-07T03:30:56;4.90;99.90
7814;DHT22;3952;48.364;16.022;2022-12-07T03:33:30;4.90;99.90
7814;DHT22;3952;48.364;16.022;2022-12-07T03:36:03;4.90;99.90
7814;DHT22;3952;48.364;16.022;2022-12-07T03:38:35;4.90;99.90
7814;DHT22;3952;48.364;16.022;2022-12-07T03:41:06;4.80;99.90
7814;DHT22;3952;48.364;16.022;2022-12-07T03:43:34;4.90;99.90
7814;DHT22;3952;48.364;16.022;2022-12-07T03:46:12;4.90;99.90
7814;DHT22;3952;48.364;16.022;2022-12-07T03:48:48;4.90;99.90
7814;DHT22;3952;48.364;16.022;2022-12-07T03:51:21;4.80;99.90
7814;DHT22;3952;48.364;16.022;2022-12-07T03:53:53;4.90;99.90
7814;DHT22;3952;48.364;16.022;2022-12-07T03:56:22;4.80;99.90
7814;DHT22;3952;48.364;16.022;2022-12-07T03:58:51;4.80;99.90
7814;DHT22;3952;48.364;16.022;2022-12-07T04:01:20;4.80;99.90
7814;DHT22;3952;48.364;16.022;2022-12-07T04:03:49;4.80;99.90
7814;DHT22;3952;48.364;16.022;2022-12-07T04:06:16;4.80;99.90
7814;DHT22;3952;48.364;16.022;2022-12-07T04:08:44;4.80;99.90
7814;DHT22;3952;48.364;16.022;2022-12-07T04:11:11;4.80;99.90
7814;DHT22;3952;48.364;16.022;2022-12-07T04:13:38;4.50;99.90
7814;DHT22;3952;48.364;16.022;2022-12-07T04:16:21;4.80;99.90
7814;DHT22;3952;48.364;16.022;2022-12-07T04:18:48;4.80;99.90
7814;DHT22;3952;48.364;16.022;2022-12-07T04:21:15;4.80;99.90
7814;DHT22;3952;48.364;16.022;2022-12-07T04:23:42;4.80;99.90
7814;DHT22;3952;48.364;16.022;2022-12-07T04:26:10;4.80;99.90
7814;DHT22;3952;48.364;16.022;2022-12-07T04:28:38;4.80;99.90
7814;DHT22;3952;48.364;16.022;2022-12-07T04:31:05;4.80;99.90
7814;DHT22;3952;48.364;16.022;2022-12-07T04:33:34;4.80;99.90
7814;DHT22;3952;48.364;16.022;2022-12-07T04:36:02;4.80;99.90
7814;DHT22;3952;48.364;16.022;2022-12-07T04:38:29;4.80;99.90
7814;DHT22;3952;48.364;16.022;2022-12-07T04:40:56;4.80;99.90
7814;DHT22;3952;48.364;16.022;2022-12-07T04:43:23;4.80;99.90
7814;DHT22;3952;48.364;16.022;2022-12-07T04:45:51;4.80;99.90
7814;DHT22;3952;48.364;16.022;2022-12-07T04:48:18;4.80;99.90
7814;DHT22;3952;48.364;16.022;2022-12-07T04:50:47;4.80;99.90
7814;DHT22;3952;48.364;16.022;2022-12-07T04:53:15;4.80;99.90
7814;DHT22;3952;48.364;16.022;2022-12-07T04:55:42;6.10;99.90
7814;DHT22;3952;48.364;16.022;2022-12-07T04:58:10;4.90;99.90
7814;DHT22;3952;48.364;16.022;2022-12-07T05:00:37;4.80;99.90
7814;DHT22;3952;48.364;16.022;2022-12-07T05:03:04;4.80;99.90
7814;DHT22;3952;48.364;16.022;2022-12-07T05:05:32;4.80;99.90
7814;DHT22;3952;48.364;16.022;2022-12-07T05:08:00;4.80;99.90
7814;DHT22;3952;48.364;16.022;2022-12-07T05:10:27;4.80;99.90
7814;DHT22;3952;48.364;16.022;2022-12-07T05:12:54;4.80;99.90
7814;DHT22;3952;48.364;16.022;2022-12-07T05:15:22;4.80;99.90
7814;DHT22;3952;48.364;16.022;2022-12-07T05:17:49;4.80;99.90
7814;DHT22;3952;48.364;16.022;2022-12-07T05:20:18;4.80;99.90
7814;DHT22;3952;48.364;16.022;2022-12-07T05:22:45;4.80;99.90
7814;DHT22;3952;48.364;16.022;2022-12-07T05:25:14;4.80;99.90
7814;DHT22;3952;48.364;16.022;2022-12-07T05:27:41;4.80;99.90
7814;DHT22;3952;48.364;16.022;2022-12-07T05:30:09;4.80;99.90
7814;DHT22;3952;48.364;16.022;2022-12-07T05:32:36;4.80;99.90
7814;DHT22;3952;48.364;16.022;2022-12-07T05:35:04;4.80;99.90
7814;DHT22;3952;48.364;16.022;2022-12-07T05:37:32;4.80;99.90
7814;DHT22;3952;48.364;16.022;2022-12-07T05:39:59;4.70;99.90
7814;DHT22;3952;48.364;16.022;2022-12-07T05:42:27;4.70;99.90
7814;DHT22;3952;48.364;16.022;2022-12-07T05:44:55;4.70;99.90
7814;DHT22;3952;48.364;16.022;2022-12-07T05:47:22;4.70;99.90
7814;DHT22;3952;48.364;16.022;2022-12-07T05:49:49;4.70;99.90
7814;DHT22;3952;48.364;16.022;2022-12-07T05:52:16;4.70;99.90
7814;DHT22;3952;48.364;16.022;2022-12-07T05:54:44;4.70;99.90
7814;DHT22;3952;48.364;16.022;2022-12-07T05:57:11;4.70;99.90
7814;DHT22;3952;48.364;16.022;2022-12-07T05:59:39;4.70;99.90
7814;DHT22;3952;48.364;16.022;2022-12-07T06:02:08;4.70;99.90
7814;DHT22;3952;48.364;16.022;2022-12-07T06:04:39;4.70;99.90
7814;DHT22;3952;48.364;16.022;2022-12-07T06:07:07;4.70;99.90
7814;DHT22;3952;48.364;16.022;2022-12-07T06:09:34;4.70;99.90
7814;DHT22;3952;48.364;16.022;2022-12-07T06:12:02;4.70;99.90
7814;DHT22;3952;48.364;16.022;2022-12-07T06:14:49;4.70;99.90
7814;DHT22;3952;48.364;16.022;2022-12-07T06:17:16;4.70;99.90
7814;DHT22;3952;48.364;16.022;2022-12-07T06:19:43;4.70;99.90
7814;DHT22;3952;48.364;16.022;2022-12-07T06:22:11;4.70;99.90
7814;DHT22;3952;48.364;16.022;2022-12-07T06:24:39;4.70;99.90
7814;DHT22;3952;48.364;16.022;2022-12-07T06:27:07;4.70;99.90
7814;DHT22;3952;48.364;16.022;2022-12-07T06:29:34;4.70;99.90
7814;DHT22;3952;48.364;16.022;2022-12-07T06:32:03;4.80;99.90
7814;DHT22;3952;48.364;16.022;2022-12-07T06:34:31;4.70;99.90
7814;DHT22;3952;48.364;16.022;2022-12-07T06:36:59;4.70;99.90
7814;DHT22;3952;48.364;16.022;2022-12-07T06:39:27;4.70;99.90
7814;DHT22;3952;48.364;16.022;2022-12-07T06:41:55;4.80;99.90
7814;DHT22;3952;48.364;16.022;2022-12-07T06:44:23;4.80;99.90
7814;DHT22;3952;48.364;16.022;2022-12-07T06:46:51;4.80;99.90
7814;DHT22;3952;48.364;16.022;2022-12-07T06:49:20;4.80;99.90
7814;DHT22;3952;48.364;16.022;2022-12-07T06:51:47;4.80;99.90
7814;DHT22;3952;48.364;16.022;2022-12-07T06:54:18;4.90;99.90
7814;DHT22;3952;48.364;16.022;2022-12-07T06:56:46;4.90;99.90
7814;DHT22;3952;48.364;16.022;2022-12-07T06:59:13;4.80;99.90
7814;DHT22;3952;48.364;16.022;2022-12-07T07:01:40;4.80;99.90
7814;DHT22;3952;48.364;16.022;2022-12-07T07:04:07;4.80;99.90
7814;DHT22;3952;48.364;16.022;2022-12-07T07:06:36;4.80;99.90
7814;DHT22;3952;48.364;16.022;2022-12-07T07:09:03;4.80;99.90
7814;DHT22;3952;48.364;16.022;2022-12-07T07:11:31;4.80;99.90
7814;DHT22;3952;48.364;16.022;2022-12-07T07:13:58;4.80;99.90
7814;DHT22;3952;48.364;16.022;2022-12-07T07:16:28;4.80;99.90
7814;DHT22;3952;48.364;16.022;2022-12-07T07:18:56;4.80;99.90
7814;DHT22;3952;48.364;16.022;2022-12-07T07:21:23;4.80;99.90
7814;DHT22;3952;48.364;16.022;2022-12-07T07:24:08;4.90;99.90
7814;DHT22;3952;48.364;16.022;2022-12-07T07:26:35;4.90;99.90
7814;DHT22;3952;48.364;16.022;2022-12-07T07:29:02;4.90;99.90
7814;DHT22;3952;48.364;16.022;2022-12-07T07:31:29;4.90;99.90
7814;DHT22;3952;48.364;16.022;2022-12-07T07:33:57;4.90;99.90
7814;DHT22;3952;48.364;16.022;2022-12-07T07:36:24;4.90;99.90
7814;DHT22;3952;48.364;16.022;2022-12-07T07:38:52;4.80;99.90
7814;DHT22;3952;48.364;16.022;2022-12-07T07:41:20;4.90;99.90
7814;DHT22;3952;48.364;16.022;2022-12-07T07:43:47;4.90;99.90
7814;DHT22;3952;48.364;16.022;2022-12-07T07:46:14;4.90;99.90
7814;DHT22;3952;48.364;16.022;2022-12-07T07:48:41;4.90;99.90
7814;DHT22;3952;48.364;16.022;2022-12-07T07:51:09;5.00;99.90
7814;DHT22;3952;48.364;16.022;2022-12-07T07:53:36;5.00;99.90
7814;DHT22;3952;48.364;16.022;2022-12-07T07:56:05;5.00;99.90
7814;DHT22;3952;48.364;16.022;2022-12-07T07:58:32;5.00;99.90
7814;DHT22;3952;48.364;16.022;2022-12-07T08:01:03;5.00;99.90
7814;DHT22;3952;48.364;16.022;2022-12-07T08:03:31;5.00;99.90
7814;DHT22;3952;48.364;16.022;2022-12-07T08:05:58;5.10;99.90
7814;DHT22;3952;48.364;16.022;2022-12-07T08:08:25;5.10;99.90
7814;DHT22;3952;48.364;16.022;2022-12-07T08:10:53;5.10;99.90
7814;DHT22;3952;48.364;16.022;2022-12-07T08:13:21;5.10;99.90
7814;DHT22;3952;48.364;16.022;2022-12-07T08:15:48;5.10;99.90
7814;DHT22;3952;48.364;16.022;2022-12-07T08:18:16;5.10;99.90
7814;DHT22;3952;48.364;16.022;2022-12-07T08:20:43;5.10;99.90
7814;DHT22;3952;48.364;16.022;2022-12-07T08:23:11;5.10;99.90
7814;DHT22;3952;48.364;16.022;2022-12-07T08:25:39;5.10;99.90
7814;DHT22;3952;48.364;16.022;2022-12-07T08:28:07;5.10;99.90
7814;DHT22;3952;48.364;16.022;2022-12-07T08:30:59;5.20;99.90
7814;DHT22;3952;48.364;16.022;2022-12-07T08:33:27;5.20;99.90
7814;DHT22;3952;48.364;16.022;2022-12-07T08:35:54;5.30;99.90
7814;DHT22;3952;48.364;16.022;2022-12-07T08:38:22;5.30;99.90
7814;DHT22;3952;48.364;16.022;2022-12-07T08:40:54;5.30;99.90
7814;DHT22;3952;48.364;16.022;2022-12-07T08:43:22;5.40;99.90
7814;DHT22;3952;48.364;16.022;2022-12-07T08:45:55;5.50;99.90
7814;DHT22;3952;48.364;16.022;2022-12-07T08:48:25;5.60;99.90
7814;DHT22;3952;48.364;16.022;2022-12-07T08:50:53;5.60;99.90
7814;DHT22;3952;48.364;16.022;2022-12-07T08:53:21;5.90;99.90
7814;DHT22;3952;48.364;16.022;2022-12-07T08:55:48;6.00;99.90
7814;DHT22;3952;48.364;16.022;2022-12-07T08:58:16;6.10;99.90
7814;DHT22;3952;48.364;16.022;2022-12-07T09:00:43;6.10;99.90
7814;DHT22;3952;48.364;16.022;2022-12-07T09:03:11;6.00;99.90
7814;DHT22;3952;48.364;16.022;2022-12-07T09:05:39;5.90;99.90
7814;DHT22;3952;48.364;16.022;2022-12-07T09:08:07;5.90;99.90
7814;DHT22;3952;48.364;16.022;2022-12-07T09:10:34;5.80;99.90
7814;DHT22;3952;48.364;16.022;2022-12-07T09:13:04;5.90;99.90
7814;DHT22;3952;48.364;16.022;2022-12-07T09:15:33;6.10;99.90
7814;DHT22;3952;48.364;16.022;2022-12-07T09:18:00;6.20;99.90
7814;DHT22;3952;48.364;16.022;2022-12-07T09:20:28;6.70;99.90
7814;DHT22;3952;48.364;16.022;2022-12-07T09:22:56;7.30;99.90
7814;DHT22;3952;48.364;16.022;2022-12-07T09:25:23;8.10;99.90
7814;DHT22;3952;48.364;16.022;2022-12-07T09:27:55;8.80;99.90
7814;DHT22;3952;48.364;16.022;2022-12-07T09:30:23;9.10;99.90
7814;DHT22;3952;48.364;16.022;2022-12-07T09:32:53;9.80;99.90
7814;DHT22;3952;48.364;16.022;2022-12-07T09:35:20;10.10;99.90
7814;DHT22;3952;48.364;16.022;2022-12-07T09:37:47;10.30;99.90
7814;DHT22;3952;48.364;16.022;2022-12-07T09:40:17;10.50;99.90
7814;DHT22;3952;48.364;16.022;2022-12-07T09:42:48;10.50;99.90
7814;DHT22;3952;48.364;16.022;2022-12-07T09:45:20;10.60;99.90
7814;DHT22;3952;48.364;16.022;2022-12-07T09:47:48;10.60;99.90
7814;DHT22;3952;48.364;16.022;2022-12-07T09:50:17;10.60;99.90
7814;DHT22;3952;48.364;16.022;2022-12-07T09:52:47;10.50;99.90
7814;DHT22;3952;48.364;16.022;2022-12-07T09:55:22;10.50;99.90
7814;DHT22;3952;48.364;16.022;2022-12-07T09:57:52;10.30;99.90
7814;DHT22;3952;48.364;16.022;2022-12-07T10:00:21;10.20;99.90
7814;DHT22;3952;48.364;16.022;2022-12-07T10:02:55;10.10;99.90
7814;DHT22;3952;48.364;16.022;2022-12-07T10:05:25;9.80;99.90
7814;DHT22;3952;48.364;16.022;2022-12-07T10:07:54;9.90;99.90
7814;DHT22;3952;48.364;16.022;2022-12-07T10:10:25;10.00;99.90
7814;DHT22;3952;48.364;16.022;2022-12-07T10:12:55;9.90;99.90
7814;DHT22;3952;48.364;16.022;2022-12-07T10:15:23;10.00;99.90
7814;DHT22;3952;48.364;16.022;2022-12-07T10:17:52;10.10;99.90
7814;DHT22;3952;48.364;16.022;2022-12-07T10:20:22;10.10;99.90
7814;DHT22;3952;48.364;16.022;2022-12-07T10:23:02;10.20;99.90
7814;DHT22;3952;48.364;16.022;2022-12-07T10:25:34;10.20;99.90
7814;DHT22;3952;48.364;16.022;2022-12-07T10:28:13;10.20;99.90
7814;DHT22;3952;48.364;16.022;2022-12-07T10:30:56;10.30;99.90
7814;DHT22;3952;48.364;16.022;2022-12-07T10:33:33;10.40;99.90
7814;DHT22;3952;48.364;16.022;2022-12-07T10:36:09;10.40;99.90
7814;DHT22;3952;48.364;16.022;2022-12-07T10:38:45;10.60;99.90
7814;DHT22;3952;48.364;16.022;2022-12-07T10:41:14;10.60;99.90
7814;DHT22;3952;48.364;16.022;2022-12-07T10:43:53;10.50;99.90
7814;DHT22;3952;48.364;16.022;2022-12-07T10:46:51;10.30;99.90
7814;DHT22;3952;48.364;16.022;2022-12-07T10:52:33;9.60;99.90
7814;DHT22;3952;48.364;16.022;2022-12-07T10:55:11;9.20;99.90
7814;DHT22;3952;48.364;16.022;2022-12-07T10:57:49;8.90;99.90
7814;DHT22;3952;48.364;16.022;2022-12-07T11:00:21;8.80;99.90
7814;DHT22;3952;48.364;16.022;2022-12-07T11:03:08;8.70;99.90
7814;DHT22;3952;48.364;16.022;2022-12-07T11:05:48;8.60;99.90
7814;DHT22;3952;48.364;16.022;2022-12-07T11:08:25;8.60;99.90
7814;DHT22;3952;48.364;16.022;2022-12-07T11:11:04;8.60;99.90
7814;DHT22;3952;48.364;16.022;2022-12-07T11:13:43;8.50;99.90
7814;DHT22;3952;48.364;16.022;2022-12-07T11:16:24;8.30;99.90
7814;DHT22;3952;48.364;16.022;2022-12-07T11:21:53;8.00;99.90
7814;DHT22;3952;48.364;16.022;2022-12-07T11:24:29;7.90;99.90
7814;DHT22;3952;48.364;16.022;2022-12-07T11:27:07;7.80;99.90
7814;DHT22;3952;48.364;16.022;2022-12-07T11:29:49;7.80;99.90
7814;DHT22;3952;48.364;16.022;2022-12-07T11:32:34;7.90;99.90
7814;DHT22;3952;48.364;16.022;2022-12-07T11:35:11;8.00;99.90
7814;DHT22;3952;48.364;16.022;2022-12-07T11:37:42;7.90;99.90
7814;DHT22;3952;48.364;16.022;2022-12-07T11:40:17;7.90;99.90
7814;DHT22;3952;48.364;16.022;2022-12-07T11:42:52;7.90;99.90
7814;DHT22;3952;48.364;16.022;2022-12-07T11:45:25;8.00;99.90
7814;DHT22;3952;48.364;16.022;2022-12-07T11:47:55;8.00;99.90
7814;DHT22;3952;48.364;16.022;2022-12-07T11:50:30;8.00;99.90
7814;DHT22;3952;48.364;16.022;2022-12-07T11:53:02;8.10;99.90
7814;DHT22;3952;48.364;16.022;2022-12-07T11:55:41;8.10;99.90
7814;DHT22;3952;48.364;16.022;2022-12-07T11:58:19;8.20;99.90
7814;DHT22;3952;48.364;16.022;2022-12-07T12:00:51;8.20;99.90
7814;DHT22;3952;48.364;16.022;2022-12-07T12:03:25;8.20;99.90
7814;DHT22;3952;48.364;16.022;2022-12-07T12:05:56;8.10;99.90
7814;DHT22;3952;48.364;16.022;2022-12-07T12:08:29;8.20;99.90
7814;DHT22;3952;48.364;16.022;2022-12-07T12:11:14;8.10;99.90
7814;DHT22;3952;48.364;16.022;2022-12-07T12:13:59;8.10;99.90
7814;DHT22;3952;48.364;16.022;2022-12-07T12:16:51;8.10;99.90
7814;DHT22;3952;48.364;16.022;2022-12-07T12:19:30;8.10;99.90
7814;DHT22;3952;48.364;16.022;2022-12-07T12:22:06;8.10;99.90
7814;DHT22;3952;48.364;16.022;2022-12-07T12:24:36;8.10;99.90
7814;DHT22;3952;48.364;16.022;2022-12-07T12:27:07;8.10;99.90
7814;DHT22;3952;48.364;16.022;2022-12-07T12:29:38;8.00;99.90
7814;DHT22;3952;48.364;16.022;2022-12-07T12:32:14;8.00;99.90
7814;DHT22;3952;48.364;16.022;2022-12-07T12:35:02;8.00;99.90
7814;DHT22;3952;48.364;16.022;2022-12-07T12:37:44;8.00;99.90
7814;DHT22;3952;48.364;16.022;2022-12-07T12:40:42;8.00;99.90
7814;DHT22;3952;48.364;16.022;2022-12-07T12:43:44;8.00;99.90
7814;DHT22;3952;48.364;16.022;2022-12-07T12:46:46;7.90;99.90
7814;DHT22;3952;48.364;16.022;2022-12-07T12:56:14;7.70;99.90
7814;DHT22;3952;48.364;16.022;2022-12-07T12:58:45;7.70;99.90
7814;DHT22;3952;48.364;16.022;2022-12-07T13:01:42;7.60;99.90
7814;DHT22;3952;48.364;16.022;2022-12-07T13:04:48;7.60;99.90
7814;DHT22;3952;48.364;16.022;2022-12-07T13:10:22;7.40;99.90
7814;DHT22;3952;48.364;16.022;2022-12-07T13:12:59;7.30;99.90
7814;DHT22;3952;48.364;16.022;2022-12-07T13:15:35;7.20;99.90
7814;DHT22;3952;48.364;16.022;2022-12-07T13:18:21;7.20;99.90
7814;DHT22;3952;48.364;16.022;2022-12-07T13:20:52;7.10;99.90
7814;DHT22;3952;48.364;16.022;2022-12-07T13:23:29;7.00;99.90
7814;DHT22;3952;48.364;16.022;2022-12-07T13:26:06;7.00;99.90
7814;DHT22;3952;48.364;16.022;2022-12-07T13:28:39;7.00;99.90
7814;DHT22;3952;48.364;16.022;2022-12-07T13:31:30;7.00;99.90
7814;DHT22;3952;48.364;16.022;2022-12-07T13:33:59;6.90;99.90
7814;DHT22;3952;48.364;16.022;2022-12-07T13:36:29;6.90;99.90
7814;DHT22;3952;48.364;16.022;2022-12-07T13:39:16;6.90;99.90
7814;DHT22;3952;48.364;16.022;2022-12-07T13:41:48;6.80;99.90
7814;DHT22;3952;48.364;16.022;2022-12-07T13:44:19;6.70;99.90
7814;DHT22;3952;48.364;16.022;2022-12-07T13:46:54;6.70;99.90
7814;DHT22;3952;48.364;16.022;2022-12-07T13:49:25;6.50;99.90
7814;DHT22;3952;48.364;16.022;2022-12-07T13:51:54;6.50;99.90
7814;DHT22;3952;48.364;16.022;2022-12-07T13:54:22;6.30;99.90
7814;DHT22;3952;48.364;16.022;2022-12-07T13:56:51;6.20;99.90
7814;DHT22;3952;48.364;16.022;2022-12-07T13:59:22;6.20;99.90
7814;DHT22;3952;48.364;16.022;2022-12-07T14:01:51;6.10;99.90
7814;DHT22;3952;48.364;16.022;2022-12-07T14:04:30;6.00;99.90
7814;DHT22;3952;48.364;16.022;2022-12-07T14:06:58;6.00;99.90
7814;DHT22;3952;48.364;16.022;2022-12-07T14:09:27;5.90;99.90
7814;DHT22;3952;48.364;16.022;2022-12-07T14:11:57;5.90;99.90
7814;DHT22;3952;48.364;16.022;2022-12-07T14:14:29;5.90;99.90
7814;DHT22;3952;48.364;16.022;2022-12-07T14:16:59;5.80;99.90
7814;DHT22;3952;48.364;16.022;2022-12-07T14:19:43;5.80;99.90
7814;DHT22;3952;48.364;16.022;2022-12-07T14:22:21;5.80;99.90
7814;DHT22;3952;48.364;16.022;2022-12-07T14:24:49;5.80;99.90
7814;DHT22;3952;48.364;16.022;2022-12-07T14:27:18;5.70;99.90
7814;DHT22;3952;48.364;16.022;2022-12-07T14:29:48;5.80;99.90
7814;DHT22;3952;48.364;16.022;2022-12-07T14:32:21;5.80;99.90
7814;DHT22;3952;48.364;16.022;2022-12-07T14:34:58;5.80;99.90
7814;DHT22;3952;48.364;16.022;2022-12-07T14:37:27;5.80;99.90
7814;DHT22;3952;48.364;16.022;2022-12-07T14:39:55;5.80;99.90
7814;DHT22;3952;48.364;16.022;2022-12-07T14:42:26;5.80;99.90
7814;DHT22;3952;48.364;16.022;2022-12-07T14:44:56;5.80;99.90
7814;DHT22;3952;48.364;16.022;2022-12-07T14:47:24;5.80;99.90
7814;DHT22;3952;48.364;16.022;2022-12-07T14:49:52;5.80;99.90
7814;DHT22;3952;48.364;16.022;2022-12-07T14:52:21;6.10;99.90
7814;DHT22;3952;48.364;16.022;2022-12-07T14:54:49;5.80;99.90
7814;DHT22;3952;48.364;16.022;2022-12-07T14:57:16;5.80;99.90
7814;DHT22;3952;48.364;16.022;2022-12-07T14:59:44;5.80;99.90
7814;DHT22;3952;48.364;16.022;2022-12-07T15:02:14;5.70;99.90
7814;DHT22;3952;48.364;16.022;2022-12-07T15:04:41;5.70;99.90
7814;DHT22;3952;48.364;16.022;2022-12-07T15:07:14;5.70;99.90
7814;DHT22;3952;48.364;16.022;2022-12-07T15:09:41;5.60;99.90
7814;DHT22;3952;48.364;16.022;2022-12-07T15:12:08;5.70;99.90
7814;DHT22;3952;48.364;16.022;2022-12-07T15:14:36;5.70;99.90
7814;DHT22;3952;48.364;16.022;2022-12-07T15:17:03;5.70;99.90
7814;DHT22;3952;48.364;16.022;2022-12-07T15:19:32;5.70;99.90
7814;DHT22;3952;48.364;16.022;2022-12-07T15:21:59;5.60;99.90
7814;DHT22;3952;48.364;16.022;2022-12-07T15:24:26;5.60;99.90
7814;DHT22;3952;48.364;16.022;2022-12-07T15:26:53;5.60;99.90
7814;DHT22;3952;48.364;16.022;2022-12-07T15:29:21;5.60;99.90
7814;DHT22;3952;48.364;16.022;2022-12-07T15:31:49;5.60;99.90
7814;DHT22;3952;48.364;16.022;2022-12-07T15:34:16;5.60;99.90
7814;DHT22;3952;48.364;16.022;2022-12-07T15:36:45;5.50;99.90
7814;DHT22;3952;48.364;16.022;2022-12-07T15:39:12;5.50;99.90
7814;DHT22;3952;48.364;16.022;2022-12-07T15:41:40;5.40;99.90
7814;DHT22;3952;48.364;16.022;2022-12-07T15:44:10;5.40;99.90
7814;DHT22;3952;48.364;16.022;2022-12-07T15:46:54;5.40;99.90
7814;DHT22;3952;48.364;16.022;2022-12-07T15:49:21;5.30;99.90
7814;DHT22;3952;48.364;16.022;2022-12-07T15:51:50;5.30;99.90
7814;DHT22;3952;48.364;16.022;2022-12-07T15:54:19;5.30;99.90
7814;DHT22;3952;48.364;16.022;2022-12-07T15:56:47;5.30;99.90
7814;DHT22;3952;48.364;16.022;2022-12-07T15:59:14;5.30;99.90
7814;DHT22;3952;48.364;16.022;2022-12-07T16:01:42;5.30;99.90
7814;DHT22;3952;48.364;16.022;2022-12-07T16:04:09;5.30;99.90
7814;DHT22;3952;48.364;16.022;2022-12-07T16:06:37;5.30;99.90
7814;DHT22;3952;48.364;16.022;2022-12-07T16:09:06;5.30;99.90
7814;DHT22;3952;48.364;16.022;2022-12-07T16:11:34;5.30;99.90
7814;DHT22;3952;48.364;16.022;2022-12-07T16:14:01;5.30;99.90
7814;DHT22;3952;48.364;16.022;2022-12-07T16:16:28;5.30;99.90
7814;DHT22;3952;48.364;16.022;2022-12-07T16:18:57;5.20;99.90
7814;DHT22;3952;48.364;16.022;2022-12-07T16:21:25;5.10;99.90
7814;DHT22;3952;48.364;16.022;2022-12-07T16:23:52;5.10;99.90
7814;DHT22;3952;48.364;16.022;2022-12-07T16:26:21;5.10;99.90
7814;DHT22;3952;48.364;16.022;2022-12-07T16:28:49;5.10;99.90
7814;DHT22;3952;48.364;16.022;2022-12-07T16:31:18;5.10;99.90
7814;DHT22;3952;48.364;16.022;2022-12-07T16:33:46;5.00;99.90
7814;DHT22;3952;48.364;16.022;2022-12-07T16:36:15;5.00;99.90
7814;DHT22;3952;48.364;16.022;2022-12-07T16:38:42;5.00;99.90
7814;DHT22;3952;48.364;16.022;2022-12-07T16:41:10;5.00;99.90